Taiwan Taoyuan International Airport
RCTP : now visible

Airfield :











YOU CAN JOIN US ON...

 
LOGIN :

Register | Disclaimer

   EN    FR    IT 

 









Legend :    VFR   Marginal VFR   IFR   Intensive IFR   Very Intensive IFR
Visi :
Ceiling :
>= 8 km
>= 3000ft
5 to 8 km
1000 to 3000 ft
1500m to 5 km
500 to 1000 ft
800 to 1500m
200 to 500 ft
< 800m
< 200 ft
Symbols :   Thunderstorms  Fog  Heavy snow  Heavy precipitations  Wind > 20 kt






- Airport Elevation : 106 ft
- IATA code : TPE


RCTP - Taiwan Taoyuan International

CURRENT METAR :
  • 061100Z 25016KT 9999 FEW018 BKN150 29/26 Q1006 NOSIG RMK A2971

EXPIRED METARs :
  • 061030Z 24016KT 9999 FEW018 BKN150 30/26 Q1005 NOSIG RMK A2970
  • 061000Z 24015KT 9999 FEW018 BKN150 30/26 Q1005 NOSIG RMK A2970
  • 060930Z 24017KT 9999 -RA FEW018 BKN150 30/27 Q1005 NOSIG RMK A2970
  • 060917Z 24018KT 9999 -RA FEW018 BKN150 30/27 Q1005 NOSIG RMK A2970
  • 060900Z 24020KT 9999 FEW018 BKN150 30/27 Q1005 NOSIG RMK A2970
  • 060830Z 24017G27KT 9999 FEW018 BKN120 31/27 Q1006 NOSIG RMK A2971

TAF TAF RCTP
Valid from the 06 at 06:00 until the 07 at 12:00 UTC


060500Z 0606/0712 23020KT 9999 FEW015 BKN032
TEMPO 0606/0610 26015G25KT 3500 SHRA SCT006 BKN012 FEW015CB
TEMPO 0618/0624 22015KT
TEMPO 0704/0707 33015G25KT 2800 TSRA SCT004 BKN008 FEW012CB
TEMPO 0707/0712 02005KT 5000 RA SCT008 BKN016 BKN040
RCAA FIR / Asia



MET'MAP, your aeronautical weather chart ! - Copyright ORBIFLY December 2007 - Disclaimer

ORBIFLY MET'MAP TEAM :

Programming & Development : Alexandra Zaïnal
Concept & original design : Baudouin d'Aumeries
Assistance for programming : Marc-Olivier Méhu
Technical & hardware support : Manuel Goepfert

Contact : metmap@orbifly.com




SOURCES & CREDITS :

   NOAA       Earth
Advisory